sensor_id;sensor_type;location;lat;lon;timestamp;P1;durP1;ratioP1;P2;durP2;ratioP2
69161;SDS011;56269;51.738;21.652;2024-03-25T00:00:13;10.65;;;4.85;;
69161;SDS011;56269;51.738;21.652;2024-03-25T00:03:00;11.27;;;4.38;;
69161;SDS011;56269;51.738;21.652;2024-03-25T00:05:26;10.10;;;3.93;;
69161;SDS011;56269;51.738;21.652;2024-03-25T00:07:52;12.35;;;4.35;;
69161;SDS011;56269;51.738;21.652;2024-03-25T00:10:19;10.27;;;4.35;;
69161;SDS011;56269;51.738;21.652;2024-03-25T00:12:46;9.57;;;4.13;;
69161;SDS011;56269;51.738;21.652;2024-03-25T00:15:18;12.38;;;4.50;;
69161;SDS011;56269;51.738;21.652;2024-03-25T00:17:45;10.80;;;3.77;;
69161;SDS011;56269;51.738;21.652;2024-03-25T00:20:14;13.05;;;4.78;;
69161;SDS011;56269;51.738;21.652;2024-03-25T00:22:41;10.95;;;4.10;;
69161;SDS011;56269;51.738;21.652;2024-03-25T00:25:07;9.25;;;4.50;;
69161;SDS011;56269;51.738;21.652;2024-03-25T00:27:34;9.82;;;4.30;;
69161;SDS011;56269;51.738;21.652;2024-03-25T00:30:01;11.70;;;4.37;;
69161;SDS011;56269;51.738;21.652;2024-03-25T00:32:27;10.32;;;4.15;;
69161;SDS011;56269;51.738;21.652;2024-03-25T00:34:53;11.25;;;4.35;;
69161;SDS011;56269;51.738;21.652;2024-03-25T00:37:19;10.50;;;3.83;;
69161;SDS011;56269;51.738;21.652;2024-03-25T00:39:46;11.25;;;4.22;;
69161;SDS011;56269;51.738;21.652;2024-03-25T00:42:12;8.83;;;3.83;;
69161;SDS011;56269;51.738;21.652;2024-03-25T00:44:38;11.55;;;3.85;;
69161;SDS011;56269;51.738;21.652;2024-03-25T00:47:04;8.85;;;3.97;;
69161;SDS011;56269;51.738;21.652;2024-03-25T00:49:31;10.43;;;4.20;;
69161;SDS011;56269;51.738;21.652;2024-03-25T00:51:57;8.45;;;3.60;;
69161;SDS011;56269;51.738;21.652;2024-03-25T00:54:23;13.25;;;4.78;;
69161;SDS011;56269;51.738;21.652;2024-03-25T00:56:49;9.07;;;3.75;;
69161;SDS011;56269;51.738;21.652;2024-03-25T00:59:17;11.02;;;4.15;;
69161;SDS011;56269;51.738;21.652;2024-03-25T01:01:43;8.55;;;3.60;;
69161;SDS011;56269;51.738;21.652;2024-03-25T01:04:09;11.23;;;4.07;;
69161;SDS011;56269;51.738;21.652;2024-03-25T01:06:35;9.95;;;3.80;;
69161;SDS011;56269;51.738;21.652;2024-03-25T01:09:02;9.10;;;4.22;;
69161;SDS011;56269;51.738;21.652;2024-03-25T01:11:30;10.98;;;3.95;;
69161;SDS011;56269;51.738;21.652;2024-03-25T01:13:56;12.10;;;4.28;;
69161;SDS011;56269;51.738;21.652;2024-03-25T01:16:22;10.73;;;3.97;;
69161;SDS011;56269;51.738;21.652;2024-03-25T01:18:49;9.18;;;3.45;;
69161;SDS011;56269;51.738;21.652;2024-03-25T01:21:15;11.48;;;4.40;;
69161;SDS011;56269;51.738;21.652;2024-03-25T01:23:41;12.98;;;4.50;;
69161;SDS011;56269;51.738;21.652;2024-03-25T01:26:07;11.50;;;4.65;;
69161;SDS011;56269;51.738;21.652;2024-03-25T01:28:33;9.70;;;4.13;;
69161;SDS011;56269;51.738;21.652;2024-03-25T01:31:00;11.98;;;4.47;;
69161;SDS011;56269;51.738;21.652;2024-03-25T01:33:26;10.30;;;4.05;;
69161;SDS011;56269;51.738;21.652;2024-03-25T01:35:52;9.18;;;4.22;;
69161;SDS011;56269;51.738;21.652;2024-03-25T01:38:22;13.88;;;4.00;;
69161;SDS011;56269;51.738;21.652;2024-03-25T01:40:48;13.07;;;4.33;;
69161;SDS011;56269;51.738;21.652;2024-03-25T01:43:14;11.50;;;4.07;;
69161;SDS011;56269;51.738;21.652;2024-03-25T01:45:41;12.75;;;4.53;;
69161;SDS011;56269;51.738;21.652;2024-03-25T01:48:08;12.35;;;4.35;;
69161;SDS011;56269;51.738;21.652;2024-03-25T01:50:37;10.13;;;4.10;;
69161;SDS011;56269;51.738;21.652;2024-03-25T01:53:08;7.82;;;3.60;;
69161;SDS011;56269;51.738;21.652;2024-03-25T01:55:36;11.07;;;3.78;;
69161;SDS011;56269;51.738;21.652;2024-03-25T01:58:04;7.13;;;3.38;;
69161;SDS011;56269;51.738;21.652;2024-03-25T02:00:31;9.57;;;4.13;;
69161;SDS011;56269;51.738;21.652;2024-03-25T02:02:58;9.50;;;3.83;;
69161;SDS011;56269;51.738;21.652;2024-03-25T02:05:25;9.30;;;3.47;;
69161;SDS011;56269;51.738;21.652;2024-03-25T02:07:51;9.38;;;3.58;;
69161;SDS011;56269;51.738;21.652;2024-03-25T02:10:19;10.00;;;4.43;;
69161;SDS011;56269;51.738;21.652;2024-03-25T02:12:47;10.63;;;4.55;;
69161;SDS011;56269;51.738;21.652;2024-03-25T02:15:13;10.85;;;4.53;;
69161;SDS011;56269;51.738;21.652;2024-03-25T02:17:40;13.53;;;4.23;;
69161;SDS011;56269;51.738;21.652;2024-03-25T02:20:07;12.32;;;4.13;;
69161;SDS011;56269;51.738;21.652;2024-03-25T02:22:37;9.65;;;4.78;;
69161;SDS011;56269;51.738;21.652;2024-03-25T02:25:07;13.13;;;5.00;;
69161;SDS011;56269;51.738;21.652;2024-03-25T02:27:37;8.02;;;3.38;;
69161;SDS011;56269;51.738;21.652;2024-03-25T02:30:07;10.40;;;4.80;;
69161;SDS011;56269;51.738;21.652;2024-03-25T02:32:40;10.23;;;3.80;;
69161;SDS011;56269;51.738;21.652;2024-03-25T02:35:07;14.45;;;4.50;;
69161;SDS011;56269;51.738;21.652;2024-03-25T02:37:39;11.45;;;4.50;;
69161;SDS011;56269;51.738;21.652;2024-03-25T02:40:07;11.60;;;4.03;;
69161;SDS011;56269;51.738;21.652;2024-03-25T02:42:35;10.07;;;4.23;;
69161;SDS011;56269;51.738;21.652;2024-03-25T02:45:02;9.95;;;4.32;;
69161;SDS011;56269;51.738;21.652;2024-03-25T02:47:29;14.25;;;4.18;;
69161;SDS011;56269;51.738;21.652;2024-03-25T02:49:55;9.93;;;4.97;;
69161;SDS011;56269;51.738;21.652;2024-03-25T02:52:22;10.73;;;4.82;;
69161;SDS011;56269;51.738;21.652;2024-03-25T02:54:48;9.37;;;3.27;;
69161;SDS011;56269;51.738;21.652;2024-03-25T02:57:14;9.02;;;4.18;;
69161;SDS011;56269;51.738;21.652;2024-03-25T02:59:40;13.93;;;4.55;;
69161;SDS011;56269;51.738;21.652;2024-03-25T03:02:07;9.55;;;4.88;;
69161;SDS011;56269;51.738;21.652;2024-03-25T03:04:33;14.10;;;5.18;;
69161;SDS011;56269;51.738;21.652;2024-03-25T03:06:59;11.40;;;4.43;;
69161;SDS011;56269;51.738;21.652;2024-03-25T03:09:25;11.18;;;4.55;;
69161;SDS011;56269;51.738;21.652;2024-03-25T03:11:52;12.40;;;5.15;;
69161;SDS011;56269;51.738;21.652;2024-03-25T03:14:18;14.10;;;5.85;;
69161;SDS011;56269;51.738;21.652;2024-03-25T03:16:44;14.35;;;5.38;;
69161;SDS011;56269;51.738;21.652;2024-03-25T03:19:10;13.27;;;4.97;;
69161;SDS011;56269;51.738;21.652;2024-03-25T03:21:37;13.23;;;5.35;;
69161;SDS011;56269;51.738;21.652;2024-03-25T03:24:06;11.50;;;4.53;;
69161;SDS011;56269;51.738;21.652;2024-03-25T03:26:32;13.20;;;5.22;;
69161;SDS011;56269;51.738;21.652;2024-03-25T03:28:58;11.30;;;5.13;;
69161;SDS011;56269;51.738;21.652;2024-03-25T03:31:25;11.37;;;4.77;;
69161;SDS011;56269;51.738;21.652;2024-03-25T03:33:52;13.73;;;4.63;;
69161;SDS011;56269;51.738;21.652;2024-03-25T03:36:19;10.32;;;4.70;;
69161;SDS011;56269;51.738;21.652;2024-03-25T03:38:46;13.95;;;4.90;;
69161;SDS011;56269;51.738;21.652;2024-03-25T03:41:12;12.18;;;4.68;;
69161;SDS011;56269;51.738;21.652;2024-03-25T03:43:39;11.33;;;4.60;;
69161;SDS011;56269;51.738;21.652;2024-03-25T03:46:05;11.52;;;5.20;;
69161;SDS011;56269;51.738;21.652;2024-03-25T03:48:31;14.77;;;4.10;;
69161;SDS011;56269;51.738;21.652;2024-03-25T03:50:58;13.10;;;4.95;;
69161;SDS011;56269;51.738;21.652;2024-03-25T03:53:24;11.32;;;5.00;;
69161;SDS011;56269;51.738;21.652;2024-03-25T03:55:56;12.87;;;4.77;;
69161;SDS011;56269;51.738;21.652;2024-03-25T03:58:24;12.85;;;5.00;;
69161;SDS011;56269;51.738;21.652;2024-03-25T04:00:51;11.38;;;4.70;;
69161;SDS011;56269;51.738;21.652;2024-03-25T04:03:18;8.73;;;4.03;;
69161;SDS011;56269;51.738;21.652;2024-03-25T04:05:45;10.88;;;5.07;;
69161;SDS011;56269;51.738;21.652;2024-03-25T04:08:11;13.20;;;4.45;;
69161;SDS011;56269;51.738;21.652;2024-03-25T04:10:38;9.93;;;4.40;;
69161;SDS011;56269;51.738;21.652;2024-03-25T04:13:06;11.68;;;4.25;;
69161;SDS011;56269;51.738;21.652;2024-03-25T04:15:37;9.50;;;3.72;;
69161;SDS011;56269;51.738;21.652;2024-03-25T04:18:05;14.55;;;5.30;;
69161;SDS011;56269;51.738;21.652;2024-03-25T04:20:38;11.70;;;5.00;;
69161;SDS011;56269;51.738;21.652;2024-03-25T04:23:05;12.77;;;4.80;;
69161;SDS011;56269;51.738;21.652;2024-03-25T04:25:35;10.63;;;4.38;;
69161;SDS011;56269;51.738;21.652;2024-03-25T04:28:05;10.75;;;4.93;;
69161;SDS011;56269;51.738;21.652;2024-03-25T04:30:32;10.60;;;4.63;;
69161;SDS011;56269;51.738;21.652;2024-03-25T04:32:59;14.83;;;5.63;;
69161;SDS011;56269;51.738;21.652;2024-03-25T04:35:26;14.68;;;5.43;;
69161;SDS011;56269;51.738;21.652;2024-03-25T04:37:52;14.02;;;5.10;;
69161;SDS011;56269;51.738;21.652;2024-03-25T04:40:21;12.27;;;4.75;;
69161;SDS011;56269;51.738;21.652;2024-03-25T04:42:47;11.18;;;4.65;;
69161;SDS011;56269;51.738;21.652;2024-03-25T04:45:14;12.63;;;4.33;;
69161;SDS011;56269;51.738;21.652;2024-03-25T04:47:41;10.52;;;4.47;;
69161;SDS011;56269;51.738;21.652;2024-03-25T04:50:07;12.38;;;5.57;;
69161;SDS011;56269;51.738;21.652;2024-03-25T04:52:34;10.25;;;5.00;;
69161;SDS011;56269;51.738;21.652;2024-03-25T04:55:01;15.18;;;6.75;;
69161;SDS011;56269;51.738;21.652;2024-03-25T04:57:27;13.27;;;5.90;;
69161;SDS011;56269;51.738;21.652;2024-03-25T04:59:54;16.95;;;8.02;;
69161;SDS011;56269;51.738;21.652;2024-03-25T05:02:20;14.93;;;7.50;;
69161;SDS011;56269;51.738;21.652;2024-03-25T05:04:46;22.73;;;9.20;;
69161;SDS011;56269;51.738;21.652;2024-03-25T05:07:12;15.65;;;6.22;;
69161;SDS011;56269;51.738;21.652;2024-03-25T05:09:40;16.77;;;7.23;;
69161;SDS011;56269;51.738;21.652;2024-03-25T05:12:06;11.55;;;4.30;;
69161;SDS011;56269;51.738;21.652;2024-03-25T05:14:33;14.25;;;6.72;;
69161;SDS011;56269;51.738;21.652;2024-03-25T05:16:59;18.70;;;7.53;;
69161;SDS011;56269;51.738;21.652;2024-03-25T05:19:27;24.52;;;7.40;;
69161;SDS011;56269;51.738;21.652;2024-03-25T05:21:53;13.70;;;5.30;;
69161;SDS011;56269;51.738;21.652;2024-03-25T05:24:19;10.60;;;5.15;;
69161;SDS011;56269;51.738;21.652;2024-03-25T05:26:45;13.75;;;5.28;;
69161;SDS011;56269;51.738;21.652;2024-03-25T05:29:12;11.30;;;3.95;;
69161;SDS011;56269;51.738;21.652;2024-03-25T05:31:38;13.55;;;5.97;;
69161;SDS011;56269;51.738;21.652;2024-03-25T05:34:05;13.77;;;5.43;;
69161;SDS011;56269;51.738;21.652;2024-03-25T05:36:34;18.02;;;6.75;;
69161;SDS011;56269;51.738;21.652;2024-03-25T05:39:00;12.70;;;5.18;;
69161;SDS011;56269;51.738;21.652;2024-03-25T05:41:26;10.90;;;4.07;;
69161;SDS011;56269;51.738;21.652;2024-03-25T05:43:53;8.00;;;4.03;;
69161;SDS011;56269;51.738;21.652;2024-03-25T05:46:19;12.43;;;5.90;;
69161;SDS011;56269;51.738;21.652;2024-03-25T05:48:45;12.38;;;5.32;;
69161;SDS011;56269;51.738;21.652;2024-03-25T05:51:11;15.15;;;5.95;;
69161;SDS011;56269;51.738;21.652;2024-03-25T05:53:38;16.10;;;6.65;;
69161;SDS011;56269;51.738;21.652;2024-03-25T05:56:04;12.88;;;5.82;;
69161;SDS011;56269;51.738;21.652;2024-03-25T05:58:30;11.77;;;5.33;;
69161;SDS011;56269;51.738;21.652;2024-03-25T06:00:56;10.60;;;5.18;;
69161;SDS011;56269;51.738;21.652;2024-03-25T06:03:23;13.02;;;5.88;;
69161;SDS011;56269;51.738;21.652;2024-03-25T06:05:49;14.57;;;5.28;;
69161;SDS011;56269;51.738;21.652;2024-03-25T06:08:15;11.40;;;4.35;;
69161;SDS011;56269;51.738;21.652;2024-03-25T06:10:47;12.60;;;5.27;;
69161;SDS011;56269;51.738;21.652;2024-03-25T06:13:13;13.18;;;5.90;;
69161;SDS011;56269;51.738;21.652;2024-03-25T06:15:39;13.25;;;5.55;;
69161;SDS011;56269;51.738;21.652;2024-03-25T06:18:06;14.25;;;5.95;;
69161;SDS011;56269;51.738;21.652;2024-03-25T06:20:32;12.43;;;6.05;;
69161;SDS011;56269;51.738;21.652;2024-03-25T06:22:58;13.07;;;5.83;;
69161;SDS011;56269;51.738;21.652;2024-03-25T06:25:24;18.92;;;6.15;;
69161;SDS011;56269;51.738;21.652;2024-03-25T06:27:51;12.50;;;5.80;;
69161;SDS011;56269;51.738;21.652;2024-03-25T06:30:17;12.35;;;5.70;;
69161;SDS011;56269;51.738;21.652;2024-03-25T06:33:01;13.43;;;5.50;;
69161;SDS011;56269;51.738;21.652;2024-03-25T06:35:46;15.55;;;5.70;;
69161;SDS011;56269;51.738;21.652;2024-03-25T06:38:13;11.32;;;5.20;;
69161;SDS011;56269;51.738;21.652;2024-03-25T06:40:39;12.75;;;5.47;;
69161;SDS011;56269;51.738;21.652;2024-03-25T06:43:05;11.65;;;4.57;;
69161;SDS011;56269;51.738;21.652;2024-03-25T06:45:31;9.47;;;4.40;;
69161;SDS011;56269;51.738;21.652;2024-03-25T06:47:58;10.70;;;4.88;;
69161;SDS011;56269;51.738;21.652;2024-03-25T06:50:24;14.20;;;5.75;;
69161;SDS011;56269;51.738;21.652;2024-03-25T06:52:51;13.05;;;5.20;;
69161;SDS011;56269;51.738;21.652;2024-03-25T06:55:17;17.27;;;5.43;;
69161;SDS011;56269;51.738;21.652;2024-03-25T06:57:48;11.23;;;5.37;;
69161;SDS011;56269;51.738;21.652;2024-03-25T07:00:14;12.13;;;5.03;;
69161;SDS011;56269;51.738;21.652;2024-03-25T07:02:41;11.57;;;5.22;;
69161;SDS011;56269;51.738;21.652;2024-03-25T07:05:07;12.52;;;5.35;;
69161;SDS011;56269;51.738;21.652;2024-03-25T07:07:34;13.10;;;6.15;;
69161;SDS011;56269;51.738;21.652;2024-03-25T07:10:00;12.93;;;5.73;;
69161;SDS011;56269;51.738;21.652;2024-03-25T07:12:27;12.00;;;5.22;;
69161;SDS011;56269;51.738;21.652;2024-03-25T07:14:54;12.05;;;5.28;;
69161;SDS011;56269;51.738;21.652;2024-03-25T07:17:21;15.05;;;6.13;;
69161;SDS011;56269;51.738;21.652;2024-03-25T07:19:48;12.00;;;4.57;;
69161;SDS011;56269;51.738;21.652;2024-03-25T07:22:14;12.43;;;5.37;;
69161;SDS011;56269;51.738;21.652;2024-03-25T07:24:43;13.20;;;5.00;;
69161;SDS011;56269;51.738;21.652;2024-03-25T07:27:10;9.55;;;4.50;;
69161;SDS011;56269;51.738;21.652;2024-03-25T07:29:37;12.07;;;4.72;;
69161;SDS011;56269;51.738;21.652;2024-03-25T07:32:04;13.85;;;5.25;;
69161;SDS011;56269;51.738;21.652;2024-03-25T07:34:30;9.87;;;4.33;;
69161;SDS011;56269;51.738;21.652;2024-03-25T07:36:57;13.30;;;4.93;;
69161;SDS011;56269;51.738;21.652;2024-03-25T07:39:23;16.92;;;5.47;;
69161;SDS011;56269;51.738;21.652;2024-03-25T07:41:50;11.10;;;3.15;;
69161;SDS011;56269;51.738;21.652;2024-03-25T07:44:16;13.60;;;5.13;;
69161;SDS011;56269;51.738;21.652;2024-03-25T07:46:42;13.50;;;5.33;;
69161;SDS011;56269;51.738;21.652;2024-03-25T07:49:08;8.80;;;3.67;;
69161;SDS011;56269;51.738;21.652;2024-03-25T07:51:35;14.00;;;5.13;;
69161;SDS011;56269;51.738;21.652;2024-03-25T07:54:01;11.90;;;4.85;;
69161;SDS011;56269;51.738;21.652;2024-03-25T07:56:29;12.85;;;5.03;;
69161;SDS011;56269;51.738;21.652;2024-03-25T07:58:58;12.23;;;4.37;;
69161;SDS011;56269;51.738;21.652;2024-03-25T08:01:25;8.15;;;3.35;;
69161;SDS011;56269;51.738;21.652;2024-03-25T08:03:51;14.70;;;4.75;;
69161;SDS011;56269;51.738;21.652;2024-03-25T08:06:17;13.43;;;4.68;;
69161;SDS011;56269;51.738;21.652;2024-03-25T08:08:47;11.50;;;4.60;;
69161;SDS011;56269;51.738;21.652;2024-03-25T08:11:14;11.13;;;4.20;;
69161;SDS011;56269;51.738;21.652;2024-03-25T08:13:40;9.43;;;4.00;;
69161;SDS011;56269;51.738;21.652;2024-03-25T08:16:07;8.65;;;3.28;;
69161;SDS011;56269;51.738;21.652;2024-03-25T08:18:33;10.20;;;4.07;;
69161;SDS011;56269;51.738;21.652;2024-03-25T08:21:00;7.97;;;3.53;;
69161;SDS011;56269;51.738;21.652;2024-03-25T08:23:26;8.67;;;2.87;;
69161;SDS011;56269;51.738;21.652;2024-03-25T08:25:52;10.60;;;4.15;;
69161;SDS011;56269;51.738;21.652;2024-03-25T08:28:19;8.55;;;3.22;;
69161;SDS011;56269;51.738;21.652;2024-03-25T08:30:45;10.93;;;3.15;;
69161;SDS011;56269;51.738;21.652;2024-03-25T08:33:12;9.05;;;3.22;;
69161;SDS011;56269;51.738;21.652;2024-03-25T08:35:38;9.40;;;3.73;;
69161;SDS011;56269;51.738;21.652;2024-03-25T08:38:05;8.85;;;3.25;;
69161;SDS011;56269;51.738;21.652;2024-03-25T08:40:31;7.95;;;3.00;;
69161;SDS011;56269;51.738;21.652;2024-03-25T08:42:57;8.10;;;3.10;;
69161;SDS011;56269;51.738;21.652;2024-03-25T08:45:24;8.27;;;3.42;;
69161;SDS011;56269;51.738;21.652;2024-03-25T08:47:50;5.87;;;2.37;;
69161;SDS011;56269;51.738;21.652;2024-03-25T08:50:16;9.55;;;3.28;;
69161;SDS011;56269;51.738;21.652;2024-03-25T08:52:43;8.98;;;3.50;;
69161;SDS011;56269;51.738;21.652;2024-03-25T08:55:10;8.40;;;3.40;;
69161;SDS011;56269;51.738;21.652;2024-03-25T08:57:37;7.43;;;3.38;;
69161;SDS011;56269;51.738;21.652;2024-03-25T09:00:03;10.13;;;3.70;;
69161;SDS011;56269;51.738;21.652;2024-03-25T09:02:30;8.40;;;3.25;;
69161;SDS011;56269;51.738;21.652;2024-03-25T09:04:56;8.90;;;3.60;;
69161;SDS011;56269;51.738;21.652;2024-03-25T09:07:22;7.50;;;3.20;;
69161;SDS011;56269;51.738;21.652;2024-03-25T09:09:49;9.57;;;3.55;;
69161;SDS011;56269;51.738;21.652;2024-03-25T09:12:33;5.00;;;2.10;;
69161;SDS011;56269;51.738;21.652;2024-03-25T09:15:00;6.45;;;2.15;;
69161;SDS011;56269;51.738;21.652;2024-03-25T09:17:26;6.70;;;2.80;;
69161;SDS011;56269;51.738;21.652;2024-03-25T09:19:52;6.68;;;2.92;;
69161;SDS011;56269;51.738;21.652;2024-03-25T09:22:18;5.25;;;1.83;;
69161;SDS011;56269;51.738;21.652;2024-03-25T09:24:45;5.30;;;1.93;;
69161;SDS011;56269;51.738;21.652;2024-03-25T09:27:11;5.40;;;1.75;;
69161;SDS011;56269;51.738;21.652;2024-03-25T09:29:37;8.57;;;2.47;;
69161;SDS011;56269;51.738;21.652;2024-03-25T09:32:04;7.35;;;2.17;;
69161;SDS011;56269;51.738;21.652;2024-03-25T09:34:30;8.00;;;2.95;;
69161;SDS011;56269;51.738;21.652;2024-03-25T09:36:56;5.73;;;2.13;;
69161;SDS011;56269;51.738;21.652;2024-03-25T09:39:23;8.38;;;3.13;;
69161;SDS011;56269;51.738;21.652;2024-03-25T09:42:08;7.22;;;2.90;;
69161;SDS011;56269;51.738;21.652;2024-03-25T09:44:37;7.35;;;2.95;;
69161;SDS011;56269;51.738;21.652;2024-03-25T09:47:03;7.18;;;2.60;;
69161;SDS011;56269;51.738;21.652;2024-03-25T09:49:30;6.50;;;2.20;;
69161;SDS011;56269;51.738;21.652;2024-03-25T09:51:58;6.53;;;2.80;;
69161;SDS011;56269;51.738;21.652;2024-03-25T09:54:25;7.22;;;2.78;;
69161;SDS011;56269;51.738;21.652;2024-03-25T09:56:51;7.82;;;2.60;;
69161;SDS011;56269;51.738;21.652;2024-03-25T09:59:18;6.47;;;2.58;;
69161;SDS011;56269;51.738;21.652;2024-03-25T10:01:45;9.00;;;2.50;;
69161;SDS011;56269;51.738;21.652;2024-03-25T10:04:12;5.95;;;2.22;;
69161;SDS011;56269;51.738;21.652;2024-03-25T10:06:39;5.82;;;1.77;;
69161;SDS011;56269;51.738;21.652;2024-03-25T10:09:06;6.32;;;2.17;;
69161;SDS011;56269;51.738;21.652;2024-03-25T10:11:32;7.75;;;2.45;;
69161;SDS011;56269;51.738;21.652;2024-03-25T10:14:01;4.40;;;1.70;;
69161;SDS011;56269;51.738;21.652;2024-03-25T10:16:27;5.38;;;2.05;;
69161;SDS011;56269;51.738;21.652;2024-03-25T10:18:54;5.25;;;1.85;;
69161;SDS011;56269;51.738;21.652;2024-03-25T10:21:21;5.50;;;2.42;;
69161;SDS011;56269;51.738;21.652;2024-03-25T10:23:48;5.30;;;2.08;;
69161;SDS011;56269;51.738;21.652;2024-03-25T10:26:28;6.60;;;2.13;;
69161;SDS011;56269;51.738;21.652;2024-03-25T10:29:04;4.90;;;2.00;;
69161;SDS011;56269;51.738;21.652;2024-03-25T10:31:32;5.68;;;2.20;;
69161;SDS011;56269;51.738;21.652;2024-03-25T10:33:59;5.35;;;2.00;;
69161;SDS011;56269;51.738;21.652;2024-03-25T10:36:26;4.55;;;1.48;;
69161;SDS011;56269;51.738;21.652;2024-03-25T10:38:54;4.33;;;1.60;;
69161;SDS011;56269;51.738;21.652;2024-03-25T10:41:21;5.63;;;1.83;;
69161;SDS011;56269;51.738;21.652;2024-03-25T10:43:49;5.75;;;2.10;;
69161;SDS011;56269;51.738;21.652;2024-03-25T10:46:16;5.82;;;2.00;;
69161;SDS011;56269;51.738;21.652;2024-03-25T10:48:59;6.15;;;1.85;;
69161;SDS011;56269;51.738;21.652;2024-03-25T10:51:31;4.07;;;1.60;;
69161;SDS011;56269;51.738;21.652;2024-03-25T10:54:00;5.00;;;1.77;;
69161;SDS011;56269;51.738;21.652;2024-03-25T10:56:28;5.05;;;1.75;;
69161;SDS011;56269;51.738;21.652;2024-03-25T10:58:54;2.55;;;1.10;;
69161;SDS011;56269;51.738;21.652;2024-03-25T11:01:21;4.15;;;1.42;;
69161;SDS011;56269;51.738;21.652;2024-03-25T11:03:52;2.80;;;1.10;;
69161;SDS011;56269;51.738;21.652;2024-03-25T11:06:21;6.07;;;1.83;;
69161;SDS011;56269;51.738;21.652;2024-03-25T11:08:55;4.97;;;1.42;;
69161;SDS011;56269;51.738;21.652;2024-03-25T11:11:23;6.25;;;1.65;;
69161;SDS011;56269;51.738;21.652;2024-03-25T11:13:49;3.53;;;1.25;;
69161;SDS011;56269;51.738;21.652;2024-03-25T11:16:26;3.23;;;1.20;;
69161;SDS011;56269;51.738;21.652;2024-03-25T11:18:54;2.78;;;1.10;;
69161;SDS011;56269;51.738;21.652;2024-03-25T11:21:24;4.32;;;1.65;;
69161;SDS011;56269;51.738;21.652;2024-03-25T11:23:51;3.60;;;1.40;;
69161;SDS011;56269;51.738;21.652;2024-03-25T11:26:26;3.43;;;1.30;;
69161;SDS011;56269;51.738;21.652;2024-03-25T11:28:56;4.18;;;1.30;;
69161;SDS011;56269;51.738;21.652;2024-03-25T11:31:24;4.70;;;1.58;;
69161;SDS011;56269;51.738;21.652;2024-03-25T11:33:52;3.92;;;1.50;;
69161;SDS011;56269;51.738;21.652;2024-03-25T11:36:18;4.80;;;1.70;;
69161;SDS011;56269;51.738;21.652;2024-03-25T11:38:56;3.07;;;1.40;;
69161;SDS011;56269;51.738;21.652;2024-03-25T11:41:26;3.53;;;1.30;;
69161;SDS011;56269;51.738;21.652;2024-03-25T11:43:52;4.55;;;1.65;;
69161;SDS011;56269;51.738;21.652;2024-03-25T11:46:19;4.40;;;1.50;;
69161;SDS011;56269;51.738;21.652;2024-03-25T11:48:45;4.07;;;1.30;;
69161;SDS011;56269;51.738;21.652;2024-03-25T11:51:16;4.77;;;1.90;;
69161;SDS011;56269;51.738;21.652;2024-03-25T11:53:43;5.97;;;1.77;;
69161;SDS011;56269;51.738;21.652;2024-03-25T11:56:10;4.90;;;1.55;;
69161;SDS011;56269;51.738;21.652;2024-03-25T11:58:38;3.95;;;1.52;;
69161;SDS011;56269;51.738;21.652;2024-03-25T12:01:04;4.13;;;1.50;;
69161;SDS011;56269;51.738;21.652;2024-03-25T12:08:33;3.95;;;1.50;;
69161;SDS011;56269;51.738;21.652;2024-03-25T12:11:10;4.28;;;1.50;;
69161;SDS011;56269;51.738;21.652;2024-03-25T12:13:45;4.28;;;1.70;;
69161;SDS011;56269;51.738;21.652;2024-03-25T12:16:13;5.80;;;1.80;;
69161;SDS011;56269;51.738;21.652;2024-03-25T12:18:39;5.10;;;1.73;;
69161;SDS011;56269;51.738;21.652;2024-03-25T12:21:10;3.80;;;1.40;;
69161;SDS011;56269;51.738;21.652;2024-03-25T12:23:37;4.05;;;1.52;;
69161;SDS011;56269;51.738;21.652;2024-03-25T12:26:04;4.00;;;1.38;;
69161;SDS011;56269;51.738;21.652;2024-03-25T12:28:31;4.90;;;1.47;;
69161;SDS011;56269;51.738;21.652;2024-03-25T12:31:01;4.05;;;1.35;;
69161;SDS011;56269;51.738;21.652;2024-03-25T12:33:27;5.63;;;1.90;;
69161;SDS011;56269;51.738;21.652;2024-03-25T12:35:53;4.30;;;1.23;;
69161;SDS011;56269;51.738;21.652;2024-03-25T12:43:34;4.10;;;1.40;;
69161;SDS011;56269;51.738;21.652;2024-03-25T12:46:01;5.55;;;1.63;;
69161;SDS011;56269;51.738;21.652;2024-03-25T12:48:29;5.00;;;1.60;;
69161;SDS011;56269;51.738;21.652;2024-03-25T12:50:55;4.07;;;1.58;;
69161;SDS011;56269;51.738;21.652;2024-03-25T12:53:21;4.13;;;1.40;;
69161;SDS011;56269;51.738;21.652;2024-03-25T12:55:48;4.07;;;1.60;;
69161;SDS011;56269;51.738;21.652;2024-03-25T12:58:14;4.18;;;1.42;;
69161;SDS011;56269;51.738;21.652;2024-03-25T13:00:41;5.13;;;1.35;;
69161;SDS011;56269;51.738;21.652;2024-03-25T13:03:08;4.80;;;1.70;;
69161;SDS011;56269;51.738;21.652;2024-03-25T13:05:35;4.30;;;1.50;;
69161;SDS011;56269;51.738;21.652;2024-03-25T13:08:02;5.18;;;1.73;;
69161;SDS011;56269;51.738;21.652;2024-03-25T13:10:29;4.70;;;1.63;;
69161;SDS011;56269;51.738;21.652;2024-03-25T13:12:55;4.57;;;1.65;;
69161;SDS011;56269;51.738;21.652;2024-03-25T13:15:22;3.65;;;1.38;;
69161;SDS011;56269;51.738;21.652;2024-03-25T13:17:48;4.87;;;1.60;;
69161;SDS011;56269;51.738;21.652;2024-03-25T13:20:15;5.18;;;1.80;;
69161;SDS011;56269;51.738;21.652;2024-03-25T13:22:41;6.57;;;2.20;;
69161;SDS011;56269;51.738;21.652;2024-03-25T13:25:10;10.43;;;3.40;;
69161;SDS011;56269;51.738;21.652;2024-03-25T13:27:37;7.65;;;2.72;;
69161;SDS011;56269;51.738;21.652;2024-03-25T13:30:05;6.37;;;1.90;;
69161;SDS011;56269;51.738;21.652;2024-03-25T13:32:31;4.85;;;1.75;;
69161;SDS011;56269;51.738;21.652;2024-03-25T13:34:58;6.32;;;1.90;;
69161;SDS011;56269;51.738;21.652;2024-03-25T13:37:24;5.13;;;1.73;;
69161;SDS011;56269;51.738;21.652;2024-03-25T13:39:51;5.25;;;1.88;;
69161;SDS011;56269;51.738;21.652;2024-03-25T13:42:18;5.20;;;1.77;;
69161;SDS011;56269;51.738;21.652;2024-03-25T13:44:45;4.93;;;1.60;;
69161;SDS011;56269;51.738;21.652;2024-03-25T13:47:11;5.45;;;2.28;;
69161;SDS011;56269;51.738;21.652;2024-03-25T13:49:37;5.25;;;1.90;;
69161;SDS011;56269;51.738;21.652;2024-03-25T13:52:03;5.38;;;1.80;;
69161;SDS011;56269;51.738;21.652;2024-03-25T13:54:30;5.47;;;2.03;;
69161;SDS011;56269;51.738;21.652;2024-03-25T13:56:57;6.45;;;2.70;;
69161;SDS011;56269;51.738;21.652;2024-03-25T13:59:23;9.75;;;3.20;;
69161;SDS011;56269;51.738;21.652;2024-03-25T14:01:49;9.60;;;2.63;;
69161;SDS011;56269;51.738;21.652;2024-03-25T14:04:17;3.88;;;1.35;;
69161;SDS011;56269;51.738;21.652;2024-03-25T14:06:44;3.43;;;1.27;;
69161;SDS011;56269;51.738;21.652;2024-03-25T14:09:24;2.67;;;1.15;;
69161;SDS011;56269;51.738;21.652;2024-03-25T14:11:53;3.78;;;1.42;;
69161;SDS011;56269;51.738;21.652;2024-03-25T14:14:19;4.03;;;1.25;;
69161;SDS011;56269;51.738;21.652;2024-03-25T14:16:45;4.50;;;1.67;;
69161;SDS011;56269;51.738;21.652;2024-03-25T14:19:12;3.10;;;1.40;;
69161;SDS011;56269;51.738;21.652;2024-03-25T14:21:38;3.80;;;1.42;;
69161;SDS011;56269;51.738;21.652;2024-03-25T14:24:05;5.32;;;1.95;;
69161;SDS011;56269;51.738;21.652;2024-03-25T14:26:31;4.63;;;1.63;;
69161;SDS011;56269;51.738;21.652;2024-03-25T14:28:58;4.88;;;1.70;;
69161;SDS011;56269;51.738;21.652;2024-03-25T14:31:27;3.90;;;1.67;;
69161;SDS011;56269;51.738;21.652;2024-03-25T14:33:56;3.47;;;1.33;;
69161;SDS011;56269;51.738;21.652;2024-03-25T14:36:23;5.57;;;1.90;;
69161;SDS011;56269;51.738;21.652;2024-03-25T14:38:49;5.88;;;2.20;;